sensor_id;sensor_type;location;lat;lon;timestamp;pressure;altitude;pressure_sealevel;temperature;humidity
43683;BME280;29285;52.128;21.060;2023-04-28T00:00:39;100829.60;;;6.18;81.18
43683;BME280;29285;52.128;21.060;2023-04-28T00:05:52;100826.16;;;6.21;81.41
43683;BME280;29285;52.128;21.060;2023-04-28T00:10:53;100827.90;;;6.22;81.73
43683;BME280;29285;52.128;21.060;2023-04-28T00:15:54;100825.26;;;6.16;81.72
43683;BME280;29285;52.128;21.060;2023-04-28T00:20:56;100824.69;;;6.11;81.83
43683;BME280;29285;52.128;21.060;2023-04-28T00:25:57;100830.27;;;6.03;81.75
43683;BME280;29285;52.128;21.060;2023-04-28T00:30:58;100833.60;;;5.94;81.95
43683;BME280;29285;52.128;21.060;2023-04-28T00:36:00;100834.55;;;5.85;82.09
43683;BME280;29285;52.128;21.060;2023-04-28T00:41:01;100832.06;;;5.79;82.35
43683;BME280;29285;52.128;21.060;2023-04-28T00:46:02;100836.13;;;5.73;82.47
43683;BME280;29285;52.128;21.060;2023-04-28T00:51:03;100836.38;;;5.65;82.85
43683;BME280;29285;52.128;21.060;2023-04-28T00:56:06;100833.17;;;5.56;82.96
43683;BME280;29285;52.128;21.060;2023-04-28T01:01:08;100829.26;;;5.47;83.05
43683;BME280;29285;52.128;21.060;2023-04-28T01:06:10;100832.77;;;5.66;83.67
43683;BME280;29285;52.128;21.060;2023-04-28T01:11:12;100832.38;;;6.22;85.91
43683;BME280;29285;52.128;21.060;2023-04-28T01:16:14;100835.55;;;6.12;86.43
43683;BME280;29285;52.128;21.060;2023-04-28T01:21:26;100840.67;;;5.94;85.60
43683;BME280;29285;52.128;21.060;2023-04-28T01:26:28;100843.77;;;5.79;85.08
43683;BME280;29285;52.128;21.060;2023-04-28T01:31:29;100843.58;;;5.64;85.04
43683;BME280;29285;52.128;21.060;2023-04-28T01:36:31;100845.21;;;5.56;84.81
43683;BME280;29285;52.128;21.060;2023-04-28T01:41:32;100842.36;;;5.48;85.01
43683;BME280;29285;52.128;21.060;2023-04-28T01:46:34;100846.81;;;5.34;85.07
43683;BME280;29285;52.128;21.060;2023-04-28T01:51:36;100854.42;;;5.24;85.10
43683;BME280;29285;52.128;21.060;2023-04-28T01:56:37;100850.55;;;5.18;85.15
43683;BME280;29285;52.128;21.060;2023-04-28T02:01:38;100853.55;;;5.12;85.52
43683;BME280;29285;52.128;21.060;2023-04-28T02:06:39;100852.80;;;5.07;85.90
43683;BME280;29285;52.128;21.060;2023-04-28T02:11:40;100852.02;;;5.01;86.02
43683;BME280;29285;52.128;21.060;2023-04-28T02:16:41;100853.81;;;4.95;86.22
43683;BME280;29285;52.128;21.060;2023-04-28T02:21:42;100859.23;;;4.89;86.39
43683;BME280;29285;52.128;21.060;2023-04-28T02:26:43;100858.99;;;4.85;86.56
43683;BME280;29285;52.128;21.060;2023-04-28T02:31:44;100855.67;;;4.81;86.74
43683;BME280;29285;52.128;21.060;2023-04-28T02:36:46;100856.45;;;4.76;87.03
43683;BME280;29285;52.128;21.060;2023-04-28T02:41:48;100859.36;;;4.75;87.22
43683;BME280;29285;52.128;21.060;2023-04-28T02:46:49;100857.93;;;4.72;87.42
43683;BME280;29285;52.128;21.060;2023-04-28T02:51:50;100860.69;;;4.61;87.45
43683;BME280;29285;52.128;21.060;2023-04-28T02:56:51;100860.09;;;4.56;87.48
43683;BME280;29285;52.128;21.060;2023-04-28T03:01:52;100857.45;;;4.53;87.83
43683;BME280;29285;52.128;21.060;2023-04-28T03:06:54;100858.77;;;4.50;88.06
43683;BME280;29285;52.128;21.060;2023-04-28T03:11:55;100859.35;;;4.44;87.98
43683;BME280;29285;52.128;21.060;2023-04-28T03:16:56;100858.94;;;4.40;88.18
43683;BME280;29285;52.128;21.060;2023-04-28T03:21:57;100859.08;;;4.38;88.25
43683;BME280;29285;52.128;21.060;2023-04-28T03:26:58;100861.25;;;4.34;88.56
43683;BME280;29285;52.128;21.060;2023-04-28T03:31:59;100871.86;;;4.32;88.79
43683;BME280;29285;52.128;21.060;2023-04-28T03:37:01;100879.14;;;4.26;88.76
43683;BME280;29285;52.128;21.060;2023-04-28T03:42:02;100877.63;;;4.29;88.99
43683;BME280;29285;52.128;21.060;2023-04-28T03:47:03;100875.45;;;4.32;89.36
43683;BME280;29285;52.128;21.060;2023-04-28T03:52:04;100882.06;;;4.35;89.54
43683;BME280;29285;52.128;21.060;2023-04-28T03:57:06;100878.95;;;4.35;89.85
43683;BME280;29285;52.128;21.060;2023-04-28T04:02:07;100881.60;;;4.39;89.98
43683;BME280;29285;52.128;21.060;2023-04-28T04:07:08;100881.18;;;4.44;90.45
43683;BME280;29285;52.128;21.060;2023-04-28T04:12:09;100887.38;;;4.54;90.71
43683;BME280;29285;52.128;21.060;2023-04-28T04:17:10;100890.20;;;4.69;91.24
43683;BME280;29285;52.128;21.060;2023-04-28T04:22:11;100891.63;;;4.83;91.52
43683;BME280;29285;52.128;21.060;2023-04-28T04:27:12;100893.54;;;4.94;91.75
43683;BME280;29285;52.128;21.060;2023-04-28T04:32:13;100893.79;;;5.11;92.26
43683;BME280;29285;52.128;21.060;2023-04-28T04:37:15;100897.02;;;5.20;92.31
43683;BME280;29285;52.128;21.060;2023-04-28T04:42:16;100896.79;;;5.27;92.36
43683;BME280;29285;52.128;21.060;2023-04-28T04:47:17;100894.36;;;5.36;92.46
43683;BME280;29285;52.128;21.060;2023-04-28T04:52:19;100898.48;;;5.49;92.74
43683;BME280;29285;52.128;21.060;2023-04-28T04:57:20;100900.99;;;5.57;92.84
43683;BME280;29285;52.128;21.060;2023-04-28T05:02:21;100906.52;;;5.72;93.14
43683;BME280;29285;52.128;21.060;2023-04-28T05:07:22;100905.38;;;5.90;93.47
43683;BME280;29285;52.128;21.060;2023-04-28T05:12:23;100902.36;;;6.09;93.79
43683;BME280;29285;52.128;21.060;2023-04-28T05:17:24;100906.75;;;6.31;94.00
43683;BME280;29285;52.128;21.060;2023-04-28T05:22:25;100908.86;;;6.53;94.36
43683;BME280;29285;52.128;21.060;2023-04-28T05:27:26;100908.98;;;6.65;94.47
43683;BME280;29285;52.128;21.060;2023-04-28T05:32:28;100908.92;;;6.78;94.46
43683;BME280;29285;52.128;21.060;2023-04-28T05:37:29;100910.73;;;6.89;94.39
43683;BME280;29285;52.128;21.060;2023-04-28T05:42:30;100908.42;;;7.01;94.28
43683;BME280;29285;52.128;21.060;2023-04-28T05:47:31;100903.86;;;7.15;94.26
43683;BME280;29285;52.128;21.060;2023-04-28T05:52:32;100910.86;;;7.30;94.47
43683;BME280;29285;52.128;21.060;2023-04-28T05:57:33;100917.69;;;7.43;94.27
43683;BME280;29285;52.128;21.060;2023-04-28T06:02:35;100919.66;;;7.56;94.05
43683;BME280;29285;52.128;21.060;2023-04-28T06:07:36;100921.81;;;7.71;94.23
43683;BME280;29285;52.128;21.060;2023-04-28T06:12:37;100919.66;;;7.89;94.15
43683;BME280;29285;52.128;21.060;2023-04-28T06:17:39;100916.09;;;8.05;94.25
43683;BME280;29285;52.128;21.060;2023-04-28T06:22:41;100916.67;;;8.23;94.23
43683;BME280;29285;52.128;21.060;2023-04-28T06:27:43;100917.92;;;8.42;94.19
43683;BME280;29285;52.128;21.060;2023-04-28T06:32:44;100919.50;;;8.47;93.89
43683;BME280;29285;52.128;21.060;2023-04-28T06:37:45;100926.61;;;8.55;93.58
43683;BME280;29285;52.128;21.060;2023-04-28T06:42:47;100921.45;;;8.69;93.46
43683;BME280;29285;52.128;21.060;2023-04-28T06:47:48;100923.04;;;8.87;93.22
43683;BME280;29285;52.128;21.060;2023-04-28T06:52:49;100920.43;;;9.02;93.15
43683;BME280;29285;52.128;21.060;2023-04-28T06:57:50;100923.02;;;9.19;93.05
43683;BME280;29285;52.128;21.060;2023-04-28T07:02:52;100923.17;;;9.38;92.92
43683;BME280;29285;52.128;21.060;2023-04-28T07:07:53;100921.77;;;9.51;92.74
43683;BME280;29285;52.128;21.060;2023-04-28T07:12:54;100922.95;;;9.62;92.26
43683;BME280;29285;52.128;21.060;2023-04-28T07:17:55;100922.06;;;9.70;91.79
43683;BME280;29285;52.128;21.060;2023-04-28T07:22:56;100916.66;;;9.75;90.98
43683;BME280;29285;52.128;21.060;2023-04-28T07:27:57;100910.77;;;9.76;90.35
43683;BME280;29285;52.128;21.060;2023-04-28T07:32:58;100910.08;;;9.81;89.61
43683;BME280;29285;52.128;21.060;2023-04-28T07:38:01;100909.21;;;9.79;88.41
43683;BME280;29285;52.128;21.060;2023-04-28T07:43:02;100904.16;;;9.86;87.53
43683;BME280;29285;52.128;21.060;2023-04-28T07:48:03;100898.63;;;9.84;86.72
43683;BME280;29285;52.128;21.060;2023-04-28T07:53:04;100897.51;;;10.02;86.16
43683;BME280;29285;52.128;21.060;2023-04-28T07:58:07;100894.02;;;10.06;85.02
43683;BME280;29285;52.128;21.060;2023-04-28T08:03:08;100892.77;;;10.11;83.63
43683;BME280;29285;52.128;21.060;2023-04-28T08:08:09;100889.13;;;10.14;82.59
43683;BME280;29285;52.128;21.060;2023-04-28T08:13:11;100883.45;;;10.32;81.82
43683;BME280;29285;52.128;21.060;2023-04-28T08:18:13;100874.41;;;10.40;80.50
43683;BME280;29285;52.128;21.060;2023-04-28T08:23:14;100874.02;;;10.53;79.84
43683;BME280;29285;52.128;21.060;2023-04-28T08:28:16;100871.27;;;10.46;79.02
43683;BME280;29285;52.128;21.060;2023-04-28T08:33:17;100871.27;;;10.46;78.24
43683;BME280;29285;52.128;21.060;2023-04-28T08:38:18;100867.95;;;10.47;77.53
43683;BME280;29285;52.128;21.060;2023-04-28T08:43:22;100866.77;;;10.45;76.91
43683;BME280;29285;52.128;21.060;2023-04-28T08:48:24;100860.17;;;10.42;76.24
43683;BME280;29285;52.128;21.060;2023-04-28T08:53:27;100857.69;;;10.52;75.80
43683;BME280;29285;52.128;21.060;2023-04-28T08:58:35;100855.21;;;10.58;75.39
43683;BME280;29285;52.128;21.060;2023-04-28T09:03:37;100854.19;;;10.57;74.57
43683;BME280;29285;52.128;21.060;2023-04-28T09:08:38;100843.18;;;10.66;74.27
43683;BME280;29285;52.128;21.060;2023-04-28T09:13:40;100840.66;;;10.78;73.87
43683;BME280;29285;52.128;21.060;2023-04-28T09:18:55;100837.29;;;10.86;73.59
43683;BME280;29285;52.128;21.060;2023-04-28T09:23:57;100837.15;;;10.99;73.12
43683;BME280;29285;52.128;21.060;2023-04-28T09:29:11;100835.52;;;11.08;72.91
43683;BME280;29285;52.128;21.060;2023-04-28T09:34:15;100834.95;;;11.12;72.53
43683;BME280;29285;52.128;21.060;2023-04-28T09:39:27;100836.50;;;11.13;71.83
43683;BME280;29285;52.128;21.060;2023-04-28T09:44:30;100826.98;;;11.10;70.98
43683;BME280;29285;52.128;21.060;2023-04-28T09:49:31;100820.25;;;11.23;70.59
43683;BME280;29285;52.128;21.060;2023-04-28T09:54:33;100816.94;;;11.24;70.08
43683;BME280;29285;52.128;21.060;2023-04-28T09:59:35;100808.27;;;11.23;69.35
43683;BME280;29285;52.128;21.060;2023-04-28T10:04:38;100801.72;;;11.34;69.06
43683;BME280;29285;52.128;21.060;2023-04-28T10:09:40;100796.59;;;11.41;69.04
43683;BME280;29285;52.128;21.060;2023-04-28T10:14:48;100795.36;;;11.42;68.57
43683;BME280;29285;52.128;21.060;2023-04-28T10:19:52;100784.38;;;11.44;68.02
43683;BME280;29285;52.128;21.060;2023-04-28T10:30:16;100771.27;;;11.38;66.67
43683;BME280;29285;52.128;21.060;2023-04-28T10:40:35;100763.21;;;11.57;65.68
43683;BME280;29285;52.128;21.060;2023-04-28T11:35:53;100719.35;;;12.80;60.67
43683;BME280;29285;52.128;21.060;2023-04-28T11:40:57;100719.83;;;12.73;59.82
43683;BME280;29285;52.128;21.060;2023-04-28T11:45:58;100713.98;;;13.14;59.74
43683;BME280;29285;52.128;21.060;2023-04-28T11:50:59;100708.14;;;13.75;60.06
43683;BME280;29285;52.128;21.060;2023-04-28T11:56:05;100705.80;;;14.29;60.37
43683;BME280;29285;52.128;21.060;2023-04-28T12:01:12;100700.98;;;14.74;60.09
43683;BME280;29285;52.128;21.060;2023-04-28T12:06:18;100703.64;;;15.04;59.58
43683;BME280;29285;52.128;21.060;2023-04-28T12:11:19;100696.99;;;14.72;57.43
43683;BME280;29285;52.128;21.060;2023-04-28T12:16:36;100692.59;;;14.88;56.62
43683;BME280;29285;52.128;21.060;2023-04-28T12:21:39;100688.27;;;14.52;55.06
43683;BME280;29285;52.128;21.060;2023-04-28T12:26:40;100683.58;;;13.90;52.62
43683;BME280;29285;52.128;21.060;2023-04-28T12:31:51;100677.07;;;13.78;51.79
43683;BME280;29285;52.128;21.060;2023-04-28T12:36:52;100676.42;;;13.67;50.99
43683;BME280;29285;52.128;21.060;2023-04-28T12:41:54;100668.69;;;13.78;50.23
43683;BME280;29285;52.128;21.060;2023-04-28T12:46:55;100661.59;;;14.10;50.01
43683;BME280;29285;52.128;21.060;2023-04-28T12:51:56;100658.16;;;14.61;50.55
43683;BME280;29285;52.128;21.060;2023-04-28T12:56:57;100655.55;;;14.62;49.70
43683;BME280;29285;52.128;21.060;2023-04-28T13:01:58;100652.64;;;14.85;49.09
43683;BME280;29285;52.128;21.060;2023-04-28T13:07:00;100645.02;;;15.42;49.65
43683;BME280;29285;52.128;21.060;2023-04-28T13:12:02;100640.19;;;15.63;49.65
43683;BME280;29285;52.128;21.060;2023-04-28T13:17:04;100636.39;;;15.49;48.81
43683;BME280;29285;52.128;21.060;2023-04-28T13:22:06;100629.89;;;15.78;48.71
43683;BME280;29285;52.128;21.060;2023-04-28T13:27:07;100631.67;;;15.88;48.69
43683;BME280;29285;52.128;21.060;2023-04-28T13:32:11;100627.95;;;15.51;47.51
43683;BME280;29285;52.128;21.060;2023-04-28T13:37:12;100622.77;;;15.27;46.78
43683;BME280;29285;52.128;21.060;2023-04-28T13:42:13;100615.73;;;15.11;46.49
43683;BME280;29285;52.128;21.060;2023-04-28T13:47:15;100605.77;;;15.34;46.74
43683;BME280;29285;52.128;21.060;2023-04-28T13:52:16;100604.60;;;15.43;46.67
43683;BME280;29285;52.128;21.060;2023-04-28T13:57:18;100594.82;;;15.86;47.09
43683;BME280;29285;52.128;21.060;2023-04-28T14:02:20;100595.98;;;16.49;47.67
43683;BME280;29285;52.128;21.060;2023-04-28T14:07:21;100585.87;;;16.47;46.75
43683;BME280;29285;52.128;21.060;2023-04-28T14:12:22;100586.79;;;16.22;46.01
43683;BME280;29285;52.128;21.060;2023-04-28T14:17:23;100589.23;;;15.86;45.05
43683;BME280;29285;52.128;21.060;2023-04-28T14:22:24;100584.33;;;15.75;44.58
43683;BME280;29285;52.128;21.060;2023-04-28T14:27:25;100573.39;;;15.89;44.69
43683;BME280;29285;52.128;21.060;2023-04-28T14:32:27;100569.89;;;16.30;45.01
43683;BME280;29285;52.128;21.060;2023-04-28T14:37:29;100571.05;;;16.41;44.93
43683;BME280;29285;52.128;21.060;2023-04-28T14:42:32;100561.08;;;16.21;44.42
43683;BME280;29285;52.128;21.060;2023-04-28T14:47:36;100549.66;;;16.79;44.98
43683;BME280;29285;52.128;21.060;2023-04-28T14:52:38;100545.28;;;17.33;45.51
43683;BME280;29285;52.128;21.060;2023-04-28T14:57:39;100542.52;;;17.96;45.86
43683;BME280;29285;52.128;21.060;2023-04-28T15:02:40;100537.13;;;18.47;46.05
43683;BME280;29285;52.128;21.060;2023-04-28T15:07:41;100533.88;;;18.33;44.97
43683;BME280;29285;52.128;21.060;2023-04-28T15:12:42;100520.84;;;18.68;44.87
43683;BME280;29285;52.128;21.060;2023-04-28T15:17:44;100519.71;;;19.00;44.90
43683;BME280;29285;52.128;21.060;2023-04-28T15:22:45;100514.55;;;18.94;44.35
43683;BME280;29285;52.128;21.060;2023-04-28T15:27:46;100510.70;;;18.97;43.77
43683;BME280;29285;52.128;21.060;2023-04-28T15:32:50;100506.95;;;19.13;43.51
43683;BME280;29285;52.128;21.060;2023-04-28T15:37:51;100499.64;;;19.51;43.52
43683;BME280;29285;52.128;21.060;2023-04-28T15:42:53;100493.17;;;20.05;43.76
43683;BME280;29285;52.128;21.060;2023-04-28T15:47:54;100492.96;;;20.62;44.23
43683;BME280;29285;52.128;21.060;2023-04-28T15:52:56;100491.12;;;21.38;46.10
43683;BME280;29285;52.128;21.060;2023-04-28T15:57:57;100490.83;;;21.77;47.19
43683;BME280;29285;52.128;21.060;2023-04-28T16:02:58;100483.23;;;22.11;47.60
43683;BME280;29285;52.128;21.060;2023-04-28T16:08:01;100483.66;;;22.27;47.36
43683;BME280;29285;52.128;21.060;2023-04-28T16:13:02;100488.64;;;21.62;45.56
43683;BME280;29285;52.128;21.060;2023-04-28T16:18:04;100486.92;;;20.63;43.38
43683;BME280;29285;52.128;21.060;2023-04-28T16:23:07;100484.80;;;19.93;42.31
43683;BME280;29285;52.128;21.060;2023-04-28T16:28:11;100487.38;;;19.29;41.50
43683;BME280;29285;52.128;21.060;2023-04-28T16:33:12;100486.24;;;18.87;41.26
43683;BME280;29285;52.128;21.060;2023-04-28T16:38:16;100484.09;;;18.43;41.00
43683;BME280;29285;52.128;21.060;2023-04-28T16:43:20;100480.92;;;17.99;40.72
43683;BME280;29285;52.128;21.060;2023-04-28T16:48:21;100475.40;;;17.69;40.45
43683;BME280;29285;52.128;21.060;2023-04-28T16:53:23;100473.84;;;17.56;40.59
43683;BME280;29285;52.128;21.060;2023-04-28T16:58:24;100468.81;;;17.38;40.51
43683;BME280;29285;52.128;21.060;2023-04-28T17:03:25;100463.92;;;17.26;40.47
43683;BME280;29285;52.128;21.060;2023-04-28T17:08:32;100460.48;;;17.19;40.54
43683;BME280;29285;52.128;21.060;2023-04-28T17:13:34;100459.85;;;17.09;40.53
43683;BME280;29285;52.128;21.060;2023-04-28T17:18:35;100463.98;;;16.97;40.57
43683;BME280;29285;52.128;21.060;2023-04-28T17:23:41;100462.58;;;16.75;40.47
43683;BME280;29285;52.128;21.060;2023-04-28T17:28:45;100461.89;;;16.48;40.38
43683;BME280;29285;52.128;21.060;2023-04-28T17:33:49;100460.23;;;16.17;40.38
43683;BME280;29285;52.128;21.060;2023-04-28T17:38:54;100458.16;;;15.82;40.32
43683;BME280;29285;52.128;21.060;2023-04-28T17:43:55;100451.46;;;15.59;40.46
43683;BME280;29285;52.128;21.060;2023-04-28T17:48:57;100456.40;;;15.37;40.62
43683;BME280;29285;52.128;21.060;2023-04-28T17:54:00;100451.67;;;15.11;40.71
43683;BME280;29285;52.128;21.060;2023-04-28T17:59:01;100449.92;;;14.84;40.88
43683;BME280;29285;52.128;21.060;2023-04-28T18:04:02;100451.46;;;14.61;40.99
43683;BME280;29285;52.128;21.060;2023-04-28T18:09:04;100452.31;;;14.45;41.27
43683;BME280;29285;52.128;21.060;2023-04-28T18:14:05;100454.38;;;14.22;41.70
43683;BME280;29285;52.128;21.060;2023-04-28T18:19:09;100452.98;;;14.10;42.04
43683;BME280;29285;52.128;21.060;2023-04-28T18:24:10;100455.40;;;13.98;42.46
43683;BME280;29285;52.128;21.060;2023-04-28T18:29:12;100454.67;;;13.80;42.71
43683;BME280;29285;52.128;21.060;2023-04-28T18:34:13;100456.48;;;13.58;42.86
43683;BME280;29285;52.128;21.060;2023-04-28T18:39:14;100458.17;;;13.38;43.10
43683;BME280;29285;52.128;21.060;2023-04-28T18:44:15;100459.27;;;13.23;43.30
43683;BME280;29285;52.128;21.060;2023-04-28T18:49:16;100460.28;;;13.10;43.76
43683;BME280;29285;52.128;21.060;2023-04-28T18:54:17;100459.27;;;13.01;43.99
43683;BME280;29285;52.128;21.060;2023-04-28T18:59:18;100456.29;;;12.94;44.42
43683;BME280;29285;52.128;21.060;2023-04-28T19:04:19;100458.93;;;12.86;44.81
43683;BME280;29285;52.128;21.060;2023-04-28T19:09:42;100456.37;;;12.76;45.02
43683;BME280;29285;52.128;21.060;2023-04-28T19:14:43;100456.11;;;12.65;45.31
43683;BME280;29285;52.128;21.060;2023-04-28T19:19:44;100453.25;;;12.60;45.54
43683;BME280;29285;52.128;21.060;2023-04-28T19:24:46;100452.05;;;12.51;45.89
43683;BME280;29285;52.128;21.060;2023-04-28T19:29:47;100448.21;;;12.45;46.07
43683;BME280;29285;52.128;21.060;2023-04-28T19:34:48;100443.29;;;12.39;46.30
43683;BME280;29285;52.128;21.060;2023-04-28T19:39:50;100446.61;;;12.30;46.60
43683;BME280;29285;52.128;21.060;2023-04-28T19:44:56;100445.36;;;12.23;46.63
43683;BME280;29285;52.128;21.060;2023-04-28T19:49:58;100443.77;;;12.16;46.90
43683;BME280;29285;52.128;21.060;2023-04-28T19:54:59;100446.63;;;12.12;47.26
43683;BME280;29285;52.128;21.060;2023-04-28T20:00:01;100445.14;;;12.08;47.52
43683;BME280;29285;52.128;21.060;2023-04-28T20:05:03;100444.06;;;12.00;47.50
43683;BME280;29285;52.128;21.060;2023-04-28T20:10:06;100450.10;;;11.94;47.67
43683;BME280;29285;52.128;21.060;2023-04-28T20:15:07;100448.96;;;11.90;48.12
43683;BME280;29285;52.128;21.060;2023-04-28T20:20:08;100444.70;;;11.85;48.31
43683;BME280;29285;52.128;21.060;2023-04-28T20:25:10;100446.89;;;11.80;48.41
43683;BME280;29285;52.128;21.060;2023-04-28T20:30:12;100453.72;;;11.77;48.61
43683;BME280;29285;52.128;21.060;2023-04-28T20:35:14;100455.73;;;11.72;48.94
43683;BME280;29285;52.128;21.060;2023-04-28T20:40:16;100453.33;;;11.70;49.15
43683;BME280;29285;52.128;21.060;2023-04-28T20:45:17;100453.23;;;11.66;49.30
43683;BME280;29285;52.128;21.060;2023-04-28T20:50:18;100450.50;;;11.63;49.75
43683;BME280;29285;52.128;21.060;2023-04-28T20:55:19;100448.10;;;11.61;49.91
43683;BME280;29285;52.128;21.060;2023-04-28T21:00:21;100445.70;;;11.50;50.10
43683;BME280;29285;52.128;21.060;2023-04-28T21:05:22;100444.42;;;11.33;50.07
43683;BME280;29285;52.128;21.060;2023-04-28T21:10:23;100449.01;;;11.19;50.07
43683;BME280;29285;52.128;21.060;2023-04-28T21:15:24;100440.52;;;11.08;50.30
43683;BME280;29285;52.128;21.060;2023-04-28T21:20:26;100437.07;;;10.96;50.56
43683;BME280;29285;52.128;21.060;2023-04-28T21:25:28;100436.01;;;10.86;50.64
43683;BME280;29285;52.128;21.060;2023-04-28T21:30:29;100438.80;;;10.73;50.98
43683;BME280;29285;52.128;21.060;2023-04-28T21:35:30;100431.82;;;10.64;51.23
43683;BME280;29285;52.128;21.060;2023-04-28T21:40:31;100435.39;;;10.57;51.47
43683;BME280;29285;52.128;21.060;2023-04-28T21:45:33;100435.51;;;10.49;51.81
43683;BME280;29285;52.128;21.060;2023-04-28T21:50:34;100434.73;;;10.40;52.02
43683;BME280;29285;52.128;21.060;2023-04-28T21:55:36;100433.95;;;10.34;52.47
43683;BME280;29285;52.128;21.060;2023-04-28T22:00:41;100430.40;;;10.26;52.67
43683;BME280;29285;52.128;21.060;2023-04-28T22:05:43;100435.36;;;10.17;52.96
43683;BME280;29285;52.128;21.060;2023-04-28T22:10:44;100432.83;;;10.12;53.31
43683;BME280;29285;52.128;21.060;2023-04-28T22:15:46;100430.27;;;10.09;53.60
43683;BME280;29285;52.128;21.060;2023-04-28T22:20:47;100431.92;;;10.01;53.96
43683;BME280;29285;52.128;21.060;2023-04-28T22:25:49;100430.11;;;9.94;54.16
43683;BME280;29285;52.128;21.060;2023-04-28T22:30:51;100426.17;;;9.89;54.57
43683;BME280;29285;52.128;21.060;2023-04-28T22:35:55;100425.84;;;9.88;55.02
43683;BME280;29285;52.128;21.060;2023-04-28T22:40:56;100416.39;;;9.95;55.76
43683;BME280;29285;52.128;21.060;2023-04-28T22:45:58;100420.59;;;9.93;56.12
43683;BME280;29285;52.128;21.060;2023-04-28T22:50:59;100417.73;;;9.84;56.18
43683;BME280;29285;52.128;21.060;2023-04-28T22:56:00;100412.81;;;9.76;56.39
43683;BME280;29285;52.128;21.060;2023-04-28T23:01:02;100409.27;;;9.68;56.60
43683;BME280;29285;52.128;21.060;2023-04-28T23:06:04;100406.05;;;9.61;56.76
43683;BME280;29285;52.128;21.060;2023-04-28T23:11:05;100404.71;;;9.57;57.05
43683;BME280;29285;52.128;21.060;2023-04-28T23:16:07;100398.20;;;9.49;57.37
43683;BME280;29285;52.128;21.060;2023-04-28T23:21:09;100402.61;;;9.41;57.44
43683;BME280;29285;52.128;21.060;2023-04-28T23:26:11;100400.56;;;9.38;57.83
43683;BME280;29285;52.128;21.060;2023-04-28T23:31:12;100400.45;;;9.32;58.09
43683;BME280;29285;52.128;21.060;2023-04-28T23:36:13;100395.33;;;9.24;58.37
43683;BME280;29285;52.128;21.060;2023-04-28T23:41:14;100394.01;;;9.18;58.50
43683;BME280;29285;52.128;21.060;2023-04-28T23:46:16;100388.70;;;9.11;58.74
43683;BME280;29285;52.128;21.060;2023-04-28T23:51:17;100382.04;;;9.02;59.05
43683;BME280;29285;52.128;21.060;2023-04-28T23:56:18;100376.55;;;8.95;59.19
